createdAt,value
2022-10-17T00:02:01.305Z,11.02
2022-10-17T00:04:27.921Z,11.02
2022-10-17T00:06:54.455Z,11.02
2022-10-17T00:09:21.009Z,11.04
2022-10-17T00:11:47.526Z,11.04
2022-10-17T00:14:14.060Z,11.09
2022-10-17T00:16:40.618Z,11.12
2022-10-17T00:19:07.491Z,11.12
2022-10-17T00:21:34.144Z,11.14
2022-10-17T00:24:01.351Z,11.13
2022-10-17T00:26:30.939Z,11.12
2022-10-17T00:28:57.579Z,11.06
2022-10-17T00:31:24.591Z,11.09
2022-10-17T00:33:52.285Z,11.06
2022-10-17T00:36:21.658Z,11.09
2022-10-17T00:38:51.735Z,11.10
2022-10-17T00:41:21.492Z,11.10
2022-10-17T00:44:02.249Z,11.16
2022-10-17T00:46:34.526Z,11.13
2022-10-17T00:49:09.962Z,11.16
2022-10-17T00:51:45.157Z,11.16
2022-10-17T00:54:14.483Z,11.19
2022-10-17T00:56:41.708Z,11.22
2022-10-17T00:59:10.842Z,11.22
2022-10-17T01:01:37.534Z,11.26
2022-10-17T01:04:04.340Z,11.27
2022-10-17T01:06:30.967Z,11.31
2022-10-17T01:08:57.606Z,11.33
2022-10-17T01:12:06.324Z,11.34
2022-10-17T01:14:45.087Z,11.31
2022-10-17T01:17:36.259Z,11.28
2022-10-17T01:20:05.775Z,11.27
2022-10-17T01:22:55.281Z,11.28
2022-10-17T01:25:59.710Z,11.31
2022-10-17T01:29:04.335Z,11.31
2022-10-17T01:31:36.698Z,11.28
2022-10-17T01:34:29.578Z,11.26
2022-10-17T01:37:14.728Z,11.23
2022-10-17T01:39:50.668Z,11.23
2022-10-17T01:42:25.004Z,11.23
2022-10-17T01:45:10.340Z,11.20
2022-10-17T01:47:38.499Z,11.16
2022-10-17T01:50:10.723Z,11.12
2022-10-17T01:52:43.068Z,11.04
2022-10-17T01:55:16.585Z,11.03
2022-10-17T01:57:49.375Z,11.03
2022-10-17T02:00:20.764Z,10.99
2022-10-17T02:02:49.477Z,10.99
2022-10-17T02:05:18.816Z,10.96
2022-10-17T02:07:45.286Z,10.97
2022-10-17T02:10:32.629Z,10.93
2022-10-17T02:13:28.096Z,10.86
2022-10-17T02:16:05.257Z,10.85
2022-10-17T02:18:44.270Z,10.80
2022-10-17T02:21:20.972Z,10.85
2022-10-17T02:23:55.042Z,10.92
2022-10-17T02:26:28.264Z,10.93
2022-10-17T02:28:54.740Z,11.12
2022-10-17T02:31:31.051Z,11.24
2022-10-17T02:34:29.739Z,11.35
2022-10-17T02:36:59.886Z,11.47
2022-10-17T02:39:28.658Z,11.58
2022-10-17T02:41:58.289Z,11.72
2022-10-17T02:44:26.391Z,11.94
2022-10-17T02:47:23.625Z,12.08
2022-10-17T02:49:56.294Z,12.15
2022-10-17T02:52:31.296Z,12.32
2022-10-17T02:55:03.866Z,12.32
2022-10-17T02:57:44.784Z,12.28
2022-10-17T03:00:14.295Z,12.34
2022-10-17T03:02:47.475Z,12.32
2022-10-17T03:05:18.730Z,12.29
2022-10-17T03:07:45.271Z,12.25
2022-10-17T03:10:11.896Z,12.18
2022-10-17T03:12:38.467Z,12.06
2022-10-17T03:15:06.158Z,12.03
2022-10-17T03:17:33.451Z,11.95
2022-10-17T03:19:59.992Z,11.88
2022-10-17T03:22:26.758Z,11.79
2022-10-17T03:24:53.455Z,11.75
2022-10-17T03:27:19.938Z,11.78
2022-10-17T03:29:46.394Z,11.81
2022-10-17T03:32:12.964Z,12.01
2022-10-17T03:34:39.449Z,12.03
2022-10-17T03:37:05.937Z,12.02
2022-10-17T03:39:32.500Z,12.02
2022-10-17T03:41:59.022Z,12.03
2022-10-17T03:44:25.487Z,12.08
2022-10-17T03:46:52.000Z,12.13
2022-10-17T03:49:18.504Z,12.25
2022-10-17T03:51:44.981Z,12.29
2022-10-17T03:54:11.484Z,12.32
2022-10-17T03:56:38.144Z,12.15
2022-10-17T03:59:05.049Z,12.09
2022-10-17T04:01:32.029Z,12.13
2022-10-17T04:03:58.695Z,12.12
2022-10-17T04:06:25.247Z,12.09
2022-10-17T04:08:51.936Z,12.19
2022-10-17T04:11:21.038Z,12.18
2022-10-17T04:13:47.820Z,12.08
2022-10-17T04:16:16.955Z,12.09
2022-10-17T04:18:44.582Z,12.02
2022-10-17T04:21:12.238Z,11.98
2022-10-17T04:23:39.579Z,12.03
2022-10-17T04:26:06.873Z,11.95
2022-10-17T04:28:34.229Z,11.85
2022-10-17T04:31:09.710Z,11.81
2022-10-17T04:33:36.211Z,11.81
2022-10-17T04:36:08.189Z,11.79
2022-10-17T04:38:34.728Z,11.72
2022-10-17T04:41:04.063Z,11.70
2022-10-17T04:43:35.659Z,11.75
2022-10-17T04:46:05.446Z,11.70
2022-10-17T04:48:32.284Z,11.71
2022-10-17T04:51:04.101Z,11.67
2022-10-17T04:53:31.823Z,11.67
2022-10-17T04:55:58.339Z,11.61
2022-10-17T04:58:24.917Z,11.77
2022-10-17T05:00:51.473Z,11.86
2022-10-17T05:03:18.082Z,11.94
2022-10-17T05:05:44.684Z,11.95
2022-10-17T05:08:12.650Z,12.06
2022-10-17T05:10:41.867Z,12.15
2022-10-17T05:13:09.584Z,12.18
2022-10-17T05:15:37.048Z,12.05
2022-10-17T05:18:04.606Z,11.98
2022-10-17T05:20:31.758Z,12.01
2022-10-17T05:23:02.197Z,12.08
2022-10-17T05:25:28.719Z,12.11
2022-10-17T05:27:55.358Z,11.99
2022-10-17T05:30:22.040Z,11.99
2022-10-17T05:32:51.502Z,12.03
2022-10-17T05:35:17.976Z,12.02
2022-10-17T05:37:44.478Z,12.18
2022-10-17T05:40:11.296Z,12.16
2022-10-17T05:42:37.779Z,12.19
2022-10-17T05:45:04.844Z,12.13
2022-10-17T05:47:32.015Z,12.13
2022-10-17T05:49:58.805Z,12.12
2022-10-17T05:52:25.373Z,12.16
2022-10-17T05:54:53.027Z,12.16
2022-10-17T05:57:19.558Z,12.26
2022-10-17T05:59:46.086Z,12.30
2022-10-17T06:02:13.383Z,12.19
2022-10-17T06:04:45.308Z,12.33
2022-10-17T06:07:13.091Z,12.29
2022-10-17T06:09:40.081Z,12.33
2022-10-17T06:12:08.398Z,12.25
2022-10-17T06:14:35.320Z,12.23
2022-10-17T06:17:02.097Z,12.33
2022-10-17T06:19:28.734Z,12.46
2022-10-17T06:21:55.258Z,12.60
2022-10-17T06:24:22.010Z,12.70
2022-10-17T06:26:49.845Z,12.73
2022-10-17T06:29:16.703Z,12.85
2022-10-17T06:31:43.354Z,13.00
2022-10-17T06:34:09.907Z,13.01
2022-10-17T06:36:36.574Z,12.97
2022-10-17T06:39:03.572Z,13.00
2022-10-17T06:41:30.243Z,13.05
2022-10-17T06:43:56.742Z,13.16
2022-10-17T06:46:26.680Z,13.16
2022-10-17T06:48:53.401Z,13.24
2022-10-17T06:51:19.894Z,13.28
2022-10-17T06:53:47.078Z,13.35
2022-10-17T06:56:13.609Z,13.49
2022-10-17T06:58:40.704Z,13.52
2022-10-17T07:01:13.029Z,13.55
2022-10-17T07:03:40.830Z,13.56
2022-10-17T07:06:07.947Z,13.62
2022-10-17T07:08:34.463Z,13.69
2022-10-17T07:11:09.518Z,13.77
2022-10-17T07:13:39.113Z,13.89
2022-10-17T07:16:06.777Z,14.07
2022-10-17T07:18:33.404Z,14.21
2022-10-17T07:21:00.039Z,14.30
2022-10-17T07:23:26.936Z,14.37
2022-10-17T07:25:53.526Z,14.41
2022-10-17T07:28:20.056Z,14.42
2022-10-17T07:30:50.598Z,14.51
2022-10-17T07:33:20.257Z,14.61
2022-10-17T07:35:46.897Z,14.69
2022-10-17T07:38:13.311Z,14.76
2022-10-17T07:40:39.807Z,14.86
2022-10-17T07:43:06.633Z,14.95
2022-10-17T07:45:33.211Z,15.00
2022-10-17T07:47:59.767Z,15.14
2022-10-17T07:50:26.359Z,15.29
2022-10-17T07:52:52.879Z,15.33
2022-10-17T07:55:19.397Z,15.49
2022-10-17T07:57:45.979Z,15.53
2022-10-17T08:00:12.855Z,15.72
2022-10-17T08:02:39.563Z,15.81
2022-10-17T08:05:06.526Z,15.94
2022-10-17T08:07:33.047Z,16.02
2022-10-17T08:09:59.753Z,16.09
2022-10-17T08:12:26.463Z,16.36
2022-10-17T08:14:53.080Z,16.45
2022-10-17T08:17:19.542Z,16.69
2022-10-17T08:19:46.051Z,17.68
2022-10-17T08:22:12.601Z,19.41
2022-10-17T08:24:39.095Z,20.81
2022-10-17T08:27:11.326Z,20.79
2022-10-17T08:29:39.113Z,20.46
2022-10-17T08:32:09.568Z,20.72
2022-10-17T08:34:36.483Z,20.60
2022-10-17T08:37:03.350Z,19.78
2022-10-17T08:39:29.886Z,19.59
2022-10-17T08:42:02.332Z,19.13
2022-10-17T08:44:31.856Z,18.98
2022-10-17T08:47:01.848Z,18.81
2022-10-17T08:49:43.399Z,18.72
2022-10-17T08:52:38.833Z,18.88
2022-10-17T08:55:16.812Z,19.03
2022-10-17T08:57:44.373Z,19.27
2022-10-17T09:00:18.049Z,19.66
2022-10-17T09:03:12.476Z,21.14
2022-10-17T09:06:10.910Z,22.02
2022-10-17T09:08:43.312Z,23.46
2022-10-17T09:11:41.846Z,24.17
2022-10-17T09:14:16.187Z,25.07
2022-10-17T09:16:48.475Z,26.37
2022-10-17T09:19:33.486Z,26.69
2022-10-17T09:22:06.378Z,27.75
2022-10-17T09:24:44.383Z,25.77
2022-10-17T09:27:22.470Z,27.30
2022-10-17T09:29:52.866Z,28.50
2022-10-17T09:32:23.784Z,29.15
2022-10-17T09:34:52.568Z,30.05
2022-10-17T09:37:21.075Z,30.15
2022-10-17T09:39:47.922Z,30.58
2022-10-17T09:42:19.289Z,30.99
2022-10-17T09:45:04.624Z,31.40
2022-10-17T09:47:57.549Z,31.38
2022-10-17T09:50:32.535Z,31.82
2022-10-17T09:53:10.748Z,31.88
2022-10-17T09:55:43.534Z,31.65
2022-10-17T09:58:12.021Z,29.05
2022-10-17T10:00:41.677Z,28.95
2022-10-17T10:03:28.893Z,27.79
2022-10-17T10:06:20.434Z,27.10
2022-10-17T10:08:55.426Z,27.07
2022-10-17T10:11:43.970Z,26.18
2022-10-17T10:14:22.374Z,24.86
2022-10-17T10:16:49.973Z,24.04
2022-10-17T10:19:30.972Z,24.48
2022-10-17T10:21:59.806Z,24.55
2022-10-17T10:24:31.218Z,24.86
2022-10-17T10:27:01.772Z,25.05
2022-10-17T10:29:39.762Z,24.10
2022-10-17T10:32:16.362Z,24.64
2022-10-17T10:34:50.611Z,24.86
2022-10-17T10:37:21.529Z,24.79
2022-10-17T10:39:54.568Z,24.29
2022-10-17T10:42:36.390Z,24.64
2022-10-17T10:45:19.137Z,24.20
2022-10-17T10:48:00.259Z,24.34
2022-10-17T10:50:31.377Z,24.13
2022-10-17T10:53:13.812Z,24.24
2022-10-17T10:55:47.728Z,23.98
2022-10-17T10:58:26.126Z,23.38
2022-10-17T11:00:55.198Z,23.43
2022-10-17T11:03:29.098Z,23.53
2022-10-17T11:06:04.313Z,23.79
2022-10-17T11:08:52.586Z,23.88
2022-10-17T11:11:34.434Z,23.98
2022-10-17T11:14:13.744Z,24.52
2022-10-17T11:16:49.332Z,25.22
2022-10-17T11:19:24.395Z,25.36
2022-10-17T11:22:07.367Z,25.20
2022-10-17T11:24:56.847Z,25.47
2022-10-17T11:27:24.757Z,25.82
2022-10-17T11:29:51.745Z,25.84
2022-10-17T11:32:34.192Z,25.31
2022-10-17T11:35:08.207Z,25.03
2022-10-17T11:37:40.890Z,24.92
2022-10-17T11:40:25.722Z,24.57
2022-10-17T11:43:00.845Z,24.58
2022-10-17T11:45:33.908Z,24.66
2022-10-17T11:48:10.214Z,24.96
2022-10-17T11:53:51.453Z,24.49
2022-10-17T11:56:26.779Z,24.92
2022-10-17T11:59:28.324Z,24.99
2022-10-17T12:02:01.508Z,25.13
2022-10-17T12:04:49.458Z,25.57
2022-10-17T12:07:48.163Z,25.38
2022-10-17T12:10:20.724Z,25.80
2022-10-17T12:12:48.194Z,25.70
2022-10-17T12:15:20.654Z,25.84
2022-10-17T12:17:56.070Z,25.85
2022-10-17T12:20:25.311Z,26.11
2022-10-17T12:22:56.186Z,26.32
2022-10-17T12:25:30.139Z,26.49
2022-10-17T12:28:15.965Z,26.49
2022-10-17T12:30:54.855Z,26.82
2022-10-17T12:33:23.891Z,26.95
2022-10-17T12:35:52.032Z,27.07
2022-10-17T12:38:18.550Z,27.62
2022-10-17T12:40:49.106Z,28.14
2022-10-17T12:43:15.623Z,27.83
2022-10-17T12:45:51.907Z,28.07
2022-10-17T12:48:36.513Z,27.79
2022-10-17T12:51:36.098Z,28.23
2022-10-17T12:54:12.743Z,28.60
2022-10-17T12:56:42.847Z,29.18
2022-10-17T12:59:15.799Z,28.58
2022-10-17T13:01:47.431Z,28.94
2022-10-17T13:04:14.867Z,29.08
2022-10-17T13:07:01.245Z,28.14
2022-10-17T13:09:33.189Z,28.33
2022-10-17T13:12:02.936Z,28.41
2022-10-17T13:14:31.563Z,28.75
2022-10-17T13:17:04.815Z,27.81
2022-10-17T13:19:43.712Z,27.30
2022-10-17T13:22:16.418Z,26.97
2022-10-17T13:24:43.126Z,26.35
2022-10-17T13:27:30.750Z,26.94
2022-10-17T13:29:58.969Z,27.34
2022-10-17T13:32:27.152Z,26.88
2022-10-17T13:35:07.598Z,27.04
2022-10-17T13:37:35.313Z,27.38
2022-10-17T13:40:17.524Z,27.45
2022-10-17T13:42:50.854Z,27.61
2022-10-17T13:45:38.548Z,27.35
2022-10-17T13:48:17.071Z,26.93
2022-10-17T13:50:45.043Z,27.07
2022-10-17T13:53:34.125Z,26.91
2022-10-17T13:56:27.739Z,27.11
2022-10-17T13:58:59.118Z,26.86
2022-10-17T14:01:28.504Z,26.90
2022-10-17T14:04:07.962Z,26.83
2022-10-17T14:06:44.971Z,26.97
2022-10-17T14:09:32.730Z,26.90
2022-10-17T14:12:10.970Z,26.98
2022-10-17T14:14:58.378Z,26.84
2022-10-17T14:17:28.607Z,26.66
2022-10-17T14:20:14.147Z,26.43
2022-10-17T14:22:50.571Z,26.35
2022-10-17T14:25:39.388Z,26.55
2022-10-17T14:28:12.630Z,26.28
2022-10-17T14:30:56.158Z,26.36
2022-10-17T14:33:31.556Z,25.91
2022-10-17T14:36:00.506Z,25.91
2022-10-17T14:38:29.053Z,25.44
2022-10-17T14:41:42.305Z,25.31
2022-10-17T14:44:19.303Z,25.13
2022-10-17T14:46:50.723Z,25.27
2022-10-17T14:49:25.002Z,25.00
2022-10-17T14:52:29.210Z,24.78
2022-10-17T14:54:58.116Z,24.59
2022-10-17T14:57:40.822Z,24.34
2022-10-17T15:00:07.865Z,24.07
2022-10-17T15:02:34.882Z,23.97
2022-10-17T15:05:01.496Z,23.90
2022-10-17T15:07:28.275Z,23.77
2022-10-17T15:09:54.848Z,23.53
2022-10-17T15:12:24.714Z,23.32
2022-10-17T15:14:52.203Z,23.18
2022-10-17T15:17:26.070Z,23.18
2022-10-17T15:19:53.118Z,23.08
2022-10-17T15:22:19.738Z,23.12
2022-10-17T15:24:46.910Z,22.98
2022-10-17T15:27:19.285Z,22.86
2022-10-17T15:29:46.411Z,22.78
2022-10-17T15:32:13.544Z,22.87
2022-10-17T15:34:40.540Z,22.65
2022-10-17T15:37:23.941Z,22.54
2022-10-17T15:39:54.072Z,22.36
2022-10-17T15:42:22.252Z,22.23
2022-10-17T15:44:49.793Z,22.03
2022-10-17T15:47:25.614Z,21.79
2022-10-17T15:49:52.213Z,21.66
2022-10-17T15:52:19.168Z,21.57
2022-10-17T15:54:45.790Z,21.38
2022-10-17T15:57:27.513Z,21.23
2022-10-17T15:59:55.450Z,21.08
2022-10-17T16:02:23.414Z,20.94
2022-10-17T16:04:51.413Z,20.76
2022-10-17T16:07:19.332Z,20.63
2022-10-17T16:09:46.441Z,20.46
2022-10-17T16:12:16.781Z,20.29
2022-10-17T16:14:43.321Z,20.14
2022-10-17T16:17:13.911Z,19.98
2022-10-17T16:19:40.545Z,19.81
2022-10-17T16:22:07.313Z,19.67
2022-10-17T16:24:33.815Z,19.56
2022-10-17T16:27:01.358Z,19.37
2022-10-17T16:29:27.910Z,19.26
2022-10-17T16:31:54.414Z,19.09
2022-10-17T16:34:20.868Z,18.96
2022-10-17T16:36:47.482Z,18.84
2022-10-17T16:39:14.173Z,18.72
2022-10-17T16:41:40.676Z,18.58
2022-10-17T16:44:10.533Z,18.45
2022-10-17T16:46:37.645Z,18.34
2022-10-17T16:49:05.447Z,18.27
2022-10-17T16:51:35.679Z,18.17
2022-10-17T16:54:02.805Z,18.07
2022-10-17T16:56:32.899Z,18.01
2022-10-17T16:59:00.829Z,17.90
2022-10-17T17:01:29.353Z,17.82
2022-10-17T17:03:56.001Z,17.75
2022-10-17T17:06:28.390Z,17.69
2022-10-17T17:08:55.985Z,17.61
2022-10-17T17:11:25.926Z,17.58
2022-10-17T17:13:55.652Z,17.48
2022-10-17T17:16:23.915Z,17.42
2022-10-17T17:18:55.220Z,17.31
2022-10-17T17:21:21.949Z,17.30
2022-10-17T17:23:48.487Z,17.22
2022-10-17T17:26:20.953Z,17.17
2022-10-17T17:28:48.604Z,17.11
2022-10-17T17:31:18.286Z,17.06
2022-10-17T17:33:48.466Z,17.01
2022-10-17T17:36:21.709Z,16.93
2022-10-17T17:38:49.498Z,16.85
2022-10-17T17:41:19.172Z,16.77
2022-10-17T17:43:46.834Z,16.70
2022-10-17T17:46:16.449Z,16.64
2022-10-17T17:48:44.066Z,16.55
2022-10-17T17:51:12.434Z,16.50
2022-10-17T17:53:39.631Z,16.50
2022-10-17T17:56:08.492Z,16.48
2022-10-17T17:58:35.477Z,16.45
2022-10-17T18:01:27.619Z,16.43
2022-10-17T18:03:55.457Z,16.40
2022-10-17T18:06:23.002Z,16.45
2022-10-17T18:08:52.118Z,16.46
2022-10-17T18:11:21.240Z,16.49
2022-10-17T18:13:53.865Z,16.55
2022-10-17T18:16:20.344Z,16.56
2022-10-17T18:18:46.898Z,16.52
2022-10-17T18:21:14.105Z,16.50
2022-10-17T18:23:42.233Z,16.50
2022-10-17T18:26:09.664Z,16.53
2022-10-17T18:28:37.972Z,16.48
2022-10-17T18:31:12.132Z,16.40
2022-10-17T18:33:39.369Z,16.33
2022-10-17T18:36:08.360Z,16.22
2022-10-17T18:38:35.253Z,16.16
2022-10-17T18:41:08.333Z,16.06
2022-10-17T18:43:36.683Z,16.00
2022-10-17T18:46:14.773Z,15.92
2022-10-17T18:48:44.326Z,15.88
2022-10-17T18:51:11.494Z,15.82
2022-10-17T18:53:42.571Z,15.81
2022-10-17T18:56:09.897Z,15.74
2022-10-17T18:58:37.323Z,15.68
2022-10-17T19:01:06.190Z,15.70
2022-10-17T19:03:32.801Z,15.72
2022-10-17T19:06:05.714Z,15.74
2022-10-17T19:08:32.173Z,15.77
2022-10-17T19:11:08.052Z,16.25
2022-10-17T19:13:35.312Z,16.59
2022-10-17T19:16:21.790Z,17.22
2022-10-17T19:18:56.114Z,17.17
2022-10-17T19:21:22.871Z,17.34
2022-10-17T19:23:54.710Z,17.43
2022-10-17T19:26:22.135Z,17.32
2022-10-17T19:28:52.011Z,17.24
2022-10-17T19:31:25.427Z,17.22
2022-10-17T19:33:53.418Z,17.07
2022-10-17T19:36:22.130Z,16.95
2022-10-17T19:38:49.229Z,16.83
2022-10-17T19:41:16.571Z,16.74
2022-10-17T19:43:44.138Z,16.70
2022-10-17T19:46:14.033Z,16.62
2022-10-17T19:48:40.993Z,16.59
2022-10-17T19:51:11.146Z,16.55
2022-10-17T19:53:37.722Z,16.49
2022-10-17T19:56:05.082Z,16.48
2022-10-17T19:58:33.598Z,16.48
2022-10-17T20:01:01.152Z,16.53
2022-10-17T20:03:28.646Z,16.57
2022-10-17T20:05:55.837Z,16.57
2022-10-17T20:08:22.540Z,16.55
2022-10-17T20:10:49.137Z,16.56
2022-10-17T20:13:15.807Z,16.50
2022-10-17T20:15:42.412Z,16.43
2022-10-17T20:18:08.953Z,16.34
2022-10-17T20:20:36.483Z,16.26
2022-10-17T20:23:04.329Z,16.16
2022-10-17T20:25:30.940Z,16.05
2022-10-17T20:27:58.254Z,15.95
2022-10-17T20:30:24.753Z,15.84
2022-10-17T20:32:55.203Z,15.72
2022-10-17T20:35:22.007Z,15.63
2022-10-17T20:37:48.536Z,15.60
2022-10-17T20:40:35.043Z,15.54
2022-10-17T20:43:01.925Z,15.41
2022-10-17T20:45:43.599Z,15.36
2022-10-17T20:48:15.660Z,15.23
2022-10-17T20:50:43.610Z,15.13
2022-10-17T20:53:35.604Z,15.09
2022-10-17T20:56:17.092Z,15.06
2022-10-17T20:58:43.549Z,14.99
2022-10-17T21:01:10.715Z,14.93
2022-10-17T21:03:40.963Z,14.88
2022-10-17T21:06:10.701Z,14.83
2022-10-17T21:08:37.474Z,14.76
2022-10-17T21:11:08.878Z,14.76
2022-10-17T21:13:35.447Z,14.71
2022-10-17T21:16:05.779Z,14.65
2022-10-17T21:18:32.264Z,14.64
2022-10-17T21:21:16.129Z,14.67
2022-10-17T21:23:44.435Z,14.68
2022-10-17T21:26:12.646Z,14.69
2022-10-17T21:28:40.773Z,14.69
2022-10-17T21:31:24.988Z,14.73
2022-10-17T21:33:54.016Z,14.73
2022-10-17T21:36:21.579Z,14.75
2022-10-17T21:38:50.527Z,14.75
2022-10-17T21:41:22.088Z,14.72
2022-10-17T21:43:52.845Z,14.69
2022-10-17T21:46:19.936Z,14.67
2022-10-17T21:48:47.908Z,14.65
2022-10-17T21:51:17.387Z,14.65
2022-10-17T21:53:44.134Z,14.64
2022-10-17T21:56:20.712Z,14.68
2022-10-17T21:58:48.043Z,14.67
2022-10-17T22:01:20.282Z,14.69
2022-10-17T22:03:53.857Z,14.69
2022-10-17T22:06:39.123Z,14.69
2022-10-17T22:09:08.992Z,14.72
2022-10-17T22:11:35.594Z,14.75
2022-10-17T22:14:08.243Z,14.79
2022-10-17T22:16:35.094Z,14.79
2022-10-17T22:19:06.203Z,14.82
2022-10-17T22:21:34.627Z,14.82
2022-10-17T22:24:03.806Z,14.86
2022-10-17T22:26:31.848Z,14.86
2022-10-17T22:28:58.479Z,14.86
2022-10-17T22:31:25.158Z,14.88
2022-10-17T22:33:51.742Z,14.89
2022-10-17T22:36:19.528Z,14.92
2022-10-17T22:38:46.156Z,14.93
2022-10-17T22:41:12.666Z,14.96
2022-10-17T22:43:39.190Z,15.00
2022-10-17T22:46:06.777Z,15.03
2022-10-17T22:48:33.985Z,15.04
2022-10-17T22:51:02.030Z,15.12
2022-10-17T22:53:29.961Z,15.12
2022-10-17T22:56:00.616Z,15.20
2022-10-17T22:58:29.097Z,15.24
2022-10-17T23:00:56.575Z,15.29
2022-10-17T23:03:24.617Z,15.33
2022-10-17T23:05:51.404Z,15.36
2022-10-17T23:08:18.277Z,15.37
2022-10-17T23:10:45.681Z,15.37
2022-10-17T23:13:12.228Z,15.34
2022-10-17T23:15:38.772Z,15.32
2022-10-17T23:18:05.581Z,15.27
2022-10-17T23:20:32.406Z,15.23
2022-10-17T23:22:59.230Z,15.19
2022-10-17T23:25:26.815Z,15.20
2022-10-17T23:27:53.514Z,15.19
2022-10-17T23:30:20.357Z,15.14
2022-10-17T23:32:46.856Z,15.18
2022-10-17T23:35:13.583Z,15.13
2022-10-17T23:37:40.077Z,15.12
2022-10-17T23:40:07.760Z,15.12
2022-10-17T23:42:34.230Z,15.10
2022-10-17T23:45:00.801Z,15.16
2022-10-17T23:47:27.416Z,15.12
2022-10-17T23:49:54.019Z,15.09
2022-10-17T23:52:20.461Z,15.07
2022-10-17T23:54:46.982Z,15.06
2022-10-17T23:57:13.930Z,15.00
2022-10-17T23:59:40.580Z,14.99
